Map

Track Data

SID SEASON NUMBER BASIN SUBBASIN NAME ISO_TIME NATURE LAT LON WMO_WIND WMO_PRES WMO_AGENCY TRACK_TYPE DIST2LAND LANDFALL IFLAG USA_AGENCY USA_ATCF_ID USA_LAT USA_LON USA_RECORD USA_STATUS USA_WIND USA_PRES USA_SSHS USA_R34_NE USA_R34_SE USA_R34_SW USA_R34_NW USA_R50_NE USA_R50_SE USA_R50_SW USA_R50_NW USA_R64_NE USA_R64_SE USA_R64_SW USA_R64_NW USA_POCI USA_ROCI USA_RMW USA_EYE TOKYO_LAT TOKYO_LON TOKYO_GRADE TOKYO_WIND TOKYO_PRES TOKYO_R50_DIR TOKYO_R50_LONG TOKYO_R50_SHORT TOKYO_R30_DIR TOKYO_R30_LONG TOKYO_R30_SHORT TOKYO_LAND CMA_LAT CMA_LON CMA_CAT CMA_WIND CMA_PRES HKO_LAT HKO_LON HKO_CAT HKO_WIND HKO_PRES NEWDELHI_LAT NEWDELHI_LON NEWDELHI_GRADE NEWDELHI_WIND NEWDELHI_PRES NEWDELHI_CI NEWDELHI_DP NEWDELHI_POCI REUNION_LAT REUNION_LON REUNION_TYPE REUNION_WIND REUNION_PRES REUNION_TNUM REUNION_CI REUNION_RMW REUNION_R34_NE REUNION_R34_SE REUNION_R34_SW REUNION_R34_NW REUNION_R50_NE REUNION_R50_SE REUNION_R50_SW REUNION_R50_NW REUNION_R64_NE REUNION_R64_SE REUNION_R64_SW REUNION_R64_NW BOM_LAT BOM_LON BOM_TYPE BOM_WIND BOM_PRES BOM_TNUM BOM_CI BOM_RMW BOM_R34_NE BOM_R34_SE BOM_R34_SW BOM_R34_NW BOM_R50_NE BOM_R50_SE BOM_R50_SW BOM_R50_NW BOM_R64_NE BOM_R64_SE BOM_R64_SW BOM_R64_NW BOM_ROCI BOM_POCI BOM_EYE BOM_POS_METHOD BOM_PRES_METHOD NADI_LAT NADI_LON NADI_CAT NADI_WIND NADI_PRES WELLINGTON_LAT WELLINGTON_LON WELLINGTON_WIND WELLINGTON_PRES DS824_LAT DS824_LON DS824_STAGE DS824_WIND DS824_PRES TD9636_LAT TD9636_LON TD9636_STAGE TD9636_WIND TD9636_PRES TD9635_LAT TD9635_LON TD9635_WIND TD9635_PRES TD9635_ROCI NEUMANN_LAT NEUMANN_LON NEUMANN_CLASS NEUMANN_WIND NEUMANN_PRES MLC_LAT MLC_LON MLC_CLASS MLC_WIND MLC_PRES USA_GUST BOM_GUST BOM_GUST_PER REUNION_GUST REUNION_GUST_PER USA_SEAHGT USA_SEARAD_NE USA_SEARAD_SE USA_SEARAD_SW USA_SEARAD_NW STORM_SPEED STORM_DIR
1892161N21277 1892 20 NA CS NOT_NAMED 1892-06-09 00:00:00 TS 20.8000 -83.1000 35 hurdat_atl main 73 59 O_____________ hurdat_atl AL011892 20.8000 -83.1000 TS 35 0 6 332
1892161N21277 1892 20 NA CS NOT_NAMED 1892-06-09 03:00:00 TS 21.0600 -83.2449 main 49 45 P_____________ AL011892 21.0600 -83.2449 TS 35 0 6 331
1892161N21277 1892 20 NA CS NOT_NAMED 1892-06-09 06:00:00 TS 21.3000 -83.4000 35 hurdat_atl main 47 42 O_____________ hurdat_atl AL011892 21.3000 -83.4000 TS 35 0 5 326
1892161N21277 1892 20 NA CS NOT_NAMED 1892-06-09 09:00:00 TS 21.5075 -83.5650 main 60 38 P_____________ AL011892 21.5075 -83.5650 TS 35 0 5 326
1892161N21277 1892 20 NA CS NOT_NAMED 1892-06-09 12:00:00 TS 21.7333 -83.7111 35 hurdat_atl main 38 22 O____________O hurdat_atl AL011892 21.7000 -83.7000 TS 35 0 22.0000 -83.8000 TD 30 5 340
1892161N21277 1892 20 NA CS NOT_NAMED 1892-06-09 15:00:00 TS 21.9660 -83.7501 main 20 0 P____________P AL011892 21.8700 -83.7651 TS 35 0 22.3500 -83.6901 TD 30 5 355
1892161N21277 1892 20 NA NA NOT_NAMED 1892-06-09 18:00:00 TS 22.2636 -83.7455 35 hurdat_atl main 0 0 O____________O hurdat_atl AL011892 22.1000 -83.8000 TS 35 0 22.7000 -83.6000 TD 30 7 0
1892161N21277 1892 20 NA NA NOT_NAMED 1892-06-09 21:00:00 TS 22.6583 -83.7574 main 0 0 P____________P AL011892 22.4625 -83.8649 TS 35 0 23.0500 -83.5424 TD 30 8 359
1892161N21277 1892 20 NA GM NOT_NAMED 1892-06-10 00:00:00 TS 23.0667 -83.7667 35 hurdat_atl main 35 35 O____________O hurdat_atl AL011892 22.9000 -83.9000 TS 35 0 23.4000 -83.5000 TD 30 8 0
1892161N21277 1892 20 NA GM NOT_NAMED 1892-06-10 03:00:00 TS 23.4807 -83.7689 main 78 78 P____________P AL011892 23.3424 -83.8948 TS 35 0 23.7572 -83.5170 TD 30 8 6
1892161N21277 1892 20 NA GM NOT_NAMED 1892-06-10 06:00:00 TS 23.9000 -83.6667 35 hurdat_atl main 115 113 O____________O hurdat_atl AL011892 23.8000 -83.8000 TS 35 0 24.1000 -83.4000 TD 30 9 22
1892161N21277 1892 20 NA GM NOT_NAMED 1892-06-10 09:00:00 TS 24.3224 -83.4059 main 156 156 P____________P AL011892 24.2797 -83.6250 TS 37 0 24.4078 -82.9677 TD 32 10 37
1892161N21277 1892 20 NA GM NOT_NAMED 1892-06-10 12:00:00 TS 24.7000 -83.0000 40 hurdat_atl main 185 128 O____________O hurdat_atl AL011892 24.7000 -83.3000 TS 40 0 24.7000 -82.4000 TS 35 11 51
1892161N21277 1892 20 NA GM NOT_NAMED 1892-06-10 15:00:00 TS 24.9833 -82.4921 main 128 80 P____________P AL011892 24.9712 -82.7920 TS 40 0 25.0074 -81.8924 TS 35 11 61
1892161N21277 1892 20 NA GM NOT_NAMED 1892-06-10 18:00:00 TS 25.2333 -81.9333 40 hurdat_atl main 70 30 O____________O hurdat_atl AL011892 25.2000 -82.2000 TS 40 0 25.3000 -81.4000 TS 35 11 60
1892161N21277 1892 20 NA GM NOT_NAMED 1892-06-10 21:00:00 TS 25.5113 -81.4791 main 30 0 P____________P AL011892 25.4959 -81.7439 TS 40 0 25.5422 -80.9494 TS 37 11 59
1892161N21277 1892 20 NA NA NOT_NAMED 1892-06-10 23:00:00 TS 25.7026 -81.0843 40 hurdat_atl main 0 0 O____________P hurdat_atl AL011892 25.7000 -81.3000 L TS 40 0 25.7077 -80.6528 TS 39 13 64
1892161N21277 1892 20 NA NA NOT_NAMED 1892-06-11 00:00:00 TS 25.8000 -80.8333 35 hurdat_atl main 0 0 O____________O hurdat_atl AL011892 25.8000 -81.0000 TS 35 0 25.8000 -80.5000 TS 40 13 61
1892161N21277 1892 20 NA NA NOT_NAMED 1892-06-11 03:00:00 TS 26.1187 -80.2407 main 0 0 P____________P AL011892 26.0993 -80.3610 TS 35 0 26.1575 -80.0003 TS 40 11 57
1892161N21277 1892 20 NA NA NOT_NAMED 1892-06-11 06:00:00 TS 26.4333 -79.7667 35 hurdat_atl main 29 29 O____________O hurdat_atl AL011892 26.4000 -79.9000 TS 35 0 26.5000 -79.5000 TS 40 11 57
1892161N21277 1892 20 NA NA NOT_NAMED 1892-06-11 09:00:00 TS 26.7074 -79.2139 main 80 80 P____________P AL011892 26.6999 -79.2998 TS 35 0 26.7223 -79.0420 TS 42 11 62
1892161N21277 1892 20 NA NA NOT_NAMED 1892-06-11 12:00:00 TS 26.9667 -78.6667 35 hurdat_atl main 130 130 O____________O hurdat_atl AL011892 27.0000 -78.7000 TS 35 0 26.9000 -78.6000 TS 45 11 61
1892161N21277 1892 20 NA NA NOT_NAMED 1892-06-11 15:00:00 TS 27.2332 -78.1348 main 193 193 P____________P AL011892 27.2999 -78.1273 TS 35 0 27.0999 -78.1498 TS 45 11 60
1892161N21277 1892 20 NA NA NOT_NAMED 1892-06-11 18:00:00 TS 27.5000 -77.6333 35 hurdat_atl main 249 249 O____________O hurdat_atl AL011892 27.6000 -77.6000 TS 35 0 27.3000 -77.7000 TS 45 10 58
1892161N21277 1892 20 NA NA NOT_NAMED 1892-06-11 21:00:00 TS 27.7615 -77.1630 main 298 298 P____________P AL011892 27.8922 -77.1345 TS 37 0 27.5001 -77.2200 TS 47 10 56
1892161N21277 1892 20 NA NA NOT_NAMED 1892-06-12 00:00:00 TS 28.0333 -76.7333 40 hurdat_atl main 348 348 O____________O hurdat_atl AL011892 28.2000 -76.7000 TS 40 0 27.7000 -76.8000 TS 50 9 51
1892161N21277 1892 20 NA NA NOT_NAMED 1892-06-12 03:00:00 TS 28.3508 -76.3251 main 405 405 P____________P AL011892 28.5650 -76.2352 TS 42 0 27.9223 -76.5049 TS 50 9 48
1892161N21277 1892 20 NA NA NOT_NAMED 1892-06-12 06:00:00 TS 28.6333 -75.9667 45 hurdat_atl main 438 438 O____________O hurdat_atl AL011892 28.9000 -75.8000 TS 45 0 28.1000 -76.3000 TS 50 7 51
1892161N21277 1892 20 NA NA NOT_NAMED 1892-06-12 09:00:00 TS 28.8105 -75.6854 main 468 468 P____________P AL011892 29.1295 -75.4644 TS 45 0 28.1724 -76.1273 TS 50 6 59
1892161N21277 1892 20 NA NA NOT_NAMED 1892-06-12 12:00:00 TS 28.9333 -75.4000 45 hurdat_atl main 496 496 O____________O hurdat_atl AL011892 29.3000 -75.1000 TS 45 0 28.2000 -76.0000 TS 50 6 67
1892161N21277 1892 20 NA NA NOT_NAMED 1892-06-12 15:00:00 TS 29.0525 -75.0249 main 536 536 P____________P AL011892 29.4575 -74.5873 TS 45 0 28.2425 -75.8999 TS 50 7 72
1892161N21277 1892 20 NA NA NOT_NAMED 1892-06-12 18:00:00 TS 29.1667 -74.6000 45 hurdat_atl main 567 567 O____________O hurdat_atl AL011892 29.6000 -74.0000 TS 45 0 28.3000 -75.8000 TS 50 8 72
1892161N21277 1892 20 NA NA NOT_NAMED 1892-06-12 21:00:00 TS 29.3001 -74.1400 main 606 606 P____________P AL011892 29.7501 -73.3850 TS 45 0 28.4000 -75.6501 TS 50 8 71
1892161N21277 1892 20 NA NA NOT_NAMED 1892-06-13 00:00:00 TS 29.4333 -73.7000 45 hurdat_atl main 640 640 O____________O hurdat_atl AL011892 29.9000 -72.8000 TS 45 0 28.5000 -75.5000 TS 50 8 70
1892161N21277 1892 20 NA NA NOT_NAMED 1892-06-13 03:00:00 TS 29.5574 -73.3217 main 643 642 P____________P AL011892 30.0574 -72.2825 TS 45 0 28.5575 -75.3999 TS 50 6 68
1892161N21277 1892 20 NA NA NOT_NAMED 1892-06-13 06:00:00 TS 29.6667 -73.0333 45 hurdat_atl main 647 647 O____________O hurdat_atl AL011892 30.2000 -71.9000 TS 45 0 28.6000 -75.3000 TS 50 5 67
1892161N21277 1892 20 NA NA NOT_NAMED 1892-06-13 09:00:00 TS 29.7323 -72.8407 main 656 647 P____________P AL011892 30.2773 -71.6823 TS 45 0 28.6425 -75.1575 TS 50 3 57
1892161N21277 1892 20 NA NA NOT_NAMED 1892-06-13 12:00:00 TS 29.8333 -72.7333 45 hurdat_atl main 652 633 O____________O hurdat_atl AL011892 30.4000 -71.6000 TS 45 0 28.7000 -75.0000 TS 50 4 27
1892161N21277 1892 20 NA NA NOT_NAMED 1892-06-13 15:00:00 TS 30.0566 -72.6459 main 629 611 P____________P AL011892 30.6849 -71.5476 TS 45 0 28.8000 -74.8426 TS 50 5 11
1892161N21277 1892 20 NA NA NOT_NAMED 1892-06-13 18:00:00 TS 30.3000 -72.6333 45 hurdat_atl main 611 587 O____________O hurdat_atl AL011892 31.0000 -71.6000 TS 45 0 28.9000 -74.7000 TS 50 4 354
1892161N21277 1892 20 NA NA NOT_NAMED 1892-06-13 21:00:00 TS 30.4874 -72.6981 main 587 573 P____________P AL011892 31.2524 -71.7472 TS 45 0 28.9575 -74.5999 TS 50 3 330
1892161N21277 1892 20 NA NA NOT_NAMED 1892-06-14 00:00:00 TS 30.6000 -72.8333 45 hurdat_atl main 573 562 O____________O hurdat_atl AL011892 31.4000 -72.0000 TS 45 0 29.0000 -74.5000 TS 50 3 296
1892161N21277 1892 20 NA NA NOT_NAMED 1892-06-14 03:00:00 TS 30.6083 -72.9918 main 562 551 P____________P AL011892 31.3874 -72.3128 TS 45 0 29.0500 -74.3500 TS 50 3 264
1892161N21277 1892 20 NA NA NOT_NAMED 1892-06-14 06:00:00 TS 30.5667 -73.2000 45 hurdat_atl main 551 545 O____________O hurdat_atl AL011892 31.3000 -72.7000 TS 45 0 29.1000 -74.2000 TS 50 4 261
1892161N21277 1892 20 NA NA NOT_NAMED 1892-06-14 09:00:00 TS 30.5402 -73.4692 main 545 536 P____________P AL011892 31.2428 -73.1651 TS 45 0 29.1350 -74.0775 TS 50 5 266
1892161N21277 1892 20 NA NA NOT_NAMED 1892-06-14 12:00:00 TS 30.5333 -73.7333 45 hurdat_atl main 536 517 O____________O hurdat_atl AL011892 31.2000 -73.6000 TS 45 0 29.2000 -74.0000 TS 50 4 275
1892161N21277 1892 20 NA NA NOT_NAMED 1892-06-14 15:00:00 TS 30.5706 -73.9100 main 517 509 P____________P AL011892 31.1847 -73.8725 TS 45 0 29.3425 -73.9850 TS 50 3 289
1892161N21277 1892 20 NA NA NOT_NAMED 1892-06-14 18:00:00 TS 30.6333 -74.0667 45 hurdat_atl main 509 491 O____________O hurdat_atl AL011892 31.2000 -74.1000 TS 45 0 29.5000 -74.0000 TS 50 3 291
1892161N21277 1892 20 NA NA NOT_NAMED 1892-06-14 21:00:00 TS 30.6900 -74.2617 main 491 473 P____________P AL011892 31.2350 -74.3925 TS 45 0 29.6000 -74.0000 TS 47 4 291
1892161N21277 1892 20 NA NA NOT_NAMED 1892-06-15 00:00:00 TS 30.7667 -74.4667 45 hurdat_atl main 473 455 O____________O hurdat_atl AL011892 31.3000 -74.7000 TS 45 0 29.7000 -74.0000 TS 45 4 298
1892161N21277 1892 20 NA NA NOT_NAMED 1892-06-15 03:00:00 TS 30.8733 -74.6717 main 455 434 P____________P AL011892 31.3850 -75.0075 TS 45 0 29.8500 -74.0000 TS 45 4 304
1892161N21277 1892 20 NA NA NOT_NAMED 1892-06-15 06:00:00 TS 31.0000 -74.8667 45 hurdat_atl main 434 419 O____________O hurdat_atl AL011892 31.5000 -75.3000 TS 45 0 30.0000 -74.0000 TS 45 4 309
1892161N21277 1892 20 NA NA NOT_NAMED 1892-06-15 09:00:00 TS 31.1358 -75.0458 main 419 390 P____________P AL011892 31.6500 -75.5799 TS 45 0 30.1075 -73.9776 TS 45 4 313
1892161N21277 1892 20 NA NA NOT_NAMED 1892-06-15 12:00:00 TS 31.2667 -75.2000 45 hurdat_atl main 390 375 O____________O hurdat_atl AL011892 31.8000 -75.8000 TS 45 0 30.2000 -74.0000 TS 45 3 313
1892161N21277 1892 20 NA NA NOT_NAMED 1892-06-15 15:00:00 TS 31.3666 -75.3367 main 375 361 P____________P AL011892 31.8999 -75.9376 TS 45 0 30.3001 -74.1349 TS 45 3 315
1892161N21277 1892 20 NA NA NOT_NAMED 1892-06-15 18:00:00 TS 31.4667 -75.4333 45 hurdat_atl main 361 346 O____________O hurdat_atl AL011892 32.0000 -76.0000 TS 45 0 30.4000 -74.3000 TS 45 3 333
1892161N21277 1892 20 NA NA NOT_NAMED 1892-06-15 21:00:00 TS 31.5950 -75.4767 main 346 338 P____________P AL011892 32.1425 -76.0151 TS 45 0 30.5000 -74.4001 TS 45 3 349
1892161N21277 1892 20 NA NA NOT_NAMED 1892-06-16 00:00:00 TS 31.7333 -75.5000 45 hurdat_atl main 338 322 O____________O hurdat_atl AL011892 32.3000 -76.0000 TS 45 0 30.6000 -74.5000 TS 45 3 349
1892161N21277 1892 20 NA NA NOT_NAMED 1892-06-16 03:00:00 TS 31.8617 -75.5500 main 322 307 P____________P AL011892 32.4425 -76.0000 TS 42 0 30.7000 -74.6500 TS 42 3 342
1892161N21277 1892 20 NA NA NOT_NAMED 1892-06-16 06:00:00 TS 32.0000 -75.6000 40 hurdat_atl main 307 300 O____________O hurdat_atl AL011892 32.6000 -76.0000 TS 40 0 30.8000 -74.8000 TS 40 3 347
1892161N21277 1892 20 NA NA NOT_NAMED 1892-06-16 09:00:00 TS 32.1366 -75.6285 main 300 277 P____________P AL011892 32.7850 -76.0000 TS 40 0 30.8399 -74.8855 TS 37 3 350
1892161N21277 1892 20 NA NA NOT_NAMED 1892-06-16 12:00:00 TS 32.3333 -75.6667 40 hurdat_atl main 277 245 O____________O hurdat_atl AL011892 33.0000 -76.0000 TS 40 0 31.0000 -75.0000 TS 35 5 349
1892161N21277 1892 20 NA NA NOT_NAMED 1892-06-16 15:00:00 TS 32.6351 -75.7388 main 245 200 P____________P AL011892 33.2425 -76.0000 TS 37 0 31.4202 -75.2164 TS 32 7 348
1892161N21277 1892 20 NA NA NOT_NAMED 1892-06-16 18:00:00 TS 33.0000 -75.8333 35 hurdat_atl main 200 O____________O hurdat_atl AL011892 33.5000 -76.0000 TS 35 0 32.0000 -75.5000 TD 30 7 348

About IBTrACS Database

This database is a web-friendly format of International Best Track Archive for Climate Stewardship (IBTrACS), a global best track data archive curated by NOAA dating back to 1842.

Updated: 2021-10-25